Time;durP1;ratioP1;P1;durP2;ratioP2;P2;SDS_P1;SDS_P2;PMS_P1;PMS_P2;Temp;Humidity;BMP_temperature;BMP_pressure;BME280_temperature;BME280_humidity;BME280_pressure;Samples;Min_cycle;Max_cycle;Signal;HPM_P1;HPM_P2
2024/02/28 00:02:05;;;;;;;26.80;13.30;;;4.60;99.90;;;;;;5053193;28;20787;-57
2024/02/28 00:04:31;;;;;;;24.90;12.20;;;4.60;99.90;;;;;;5053344;28;20250;-57
2024/02/28 00:06:57;;;;;;;20.60;12.27;;;4.60;99.90;;;;;;5053132;28;20226;-58
2024/02/28 00:09:22;;;;;;;25.53;12.47;;;4.60;99.90;;;;;;5052911;28;20562;-57
2024/02/28 00:11:48;;;;;;;22.57;12.33;;;4.50;99.90;;;;;;5035156;28;20512;-54
2024/02/28 00:14:14;;;;;;;26.73;12.60;;;4.50;99.90;;;;;;5053056;28;20171;-54
2024/02/28 00:16:43;;;;;;;23.47;12.37;;;4.50;99.90;;;;;;5053082;28;20186;-54
2024/02/28 00:19:11;;;;;;;20.17;12.17;;;4.50;99.90;;;;;;5052906;28;20224;-56
2024/02/28 00:21:37;;;;;;;24.47;12.57;;;4.50;99.90;;;;;;5034690;28;20473;-57
2024/02/28 00:24:02;;;;;;;20.20;11.90;;;4.50;99.90;;;;;;5052563;28;20471;-55
2024/02/28 00:26:28;;;;;;;21.03;11.50;;;4.50;99.90;;;;;;5053006;28;20163;-56
2024/02/28 00:28:54;;;;;;;20.07;11.93;;;4.60;99.90;;;;;;5050073;28;20253;-56
2024/02/28 00:31:21;;;;;;;23.50;11.93;;;4.60;99.90;;;;;;5053017;28;20175;-53
2024/02/28 00:33:47;;;;;;;27.53;12.47;;;4.50;99.90;;;;;;5053068;28;20174;-56
2024/02/28 00:36:12;;;;;;;28.43;12.47;;;4.50;99.90;;;;;;5052665;28;20492;-57
2024/02/28 00:38:38;;;;;;;17.03;10.97;;;4.40;99.90;;;;;;5052484;28;20221;-58
2024/02/28 00:41:04;;;;;;;18.97;11.77;;;4.50;99.90;;;;;;5052665;28;20222;-57
2024/02/28 00:43:29;;;;;;;25.93;12.13;;;4.50;99.90;;;;;;5053141;28;20175;-57
2024/02/28 00:45:55;;;;;;;23.10;10.47;;;4.50;99.90;;;;;;5053592;28;20167;-57
2024/02/28 00:48:22;;;;;;;21.50;11.20;;;4.50;99.90;;;;;;5052603;28;20171;-59
2024/02/28 00:50:47;;;;;;;22.33;10.90;;;4.50;99.90;;;;;;5052566;28;20512;-59
2024/02/28 00:53:13;;;;;;;23.40;12.80;;;4.60;99.90;;;;;;5052043;28;20528;-59
2024/02/28 00:55:38;;;;;;;22.43;9.70;;;4.60;99.90;;;;;;5052779;28;20345;-55
2024/02/28 00:58:04;;;;;;;21.50;11.50;;;4.60;99.90;;;;;;5052709;28;20189;-55
2024/02/28 01:00:30;;;;;;;19.03;10.40;;;4.60;99.90;;;;;;5053048;28;20175;-55
2024/02/28 01:02:55;;;;;;;19.97;11.77;;;4.60;99.90;;;;;;5052698;28;20293;-56
2024/02/28 01:05:21;;;;;;;19.00;12.20;;;4.50;99.90;;;;;;5052854;28;20170;-57
2024/02/28 01:07:47;;;;;;;22.83;11.40;;;4.60;99.90;;;;;;5052365;28;20174;-53
2024/02/28 01:10:12;;;;;;;24.87;12.67;;;4.50;99.90;;;;;;5060430;28;20597;-55
2024/02/28 01:12:38;;;;;;;15.97;10.57;;;4.40;99.90;;;;;;5052181;28;20199;-57
2024/02/28 01:15:04;;;;;;;18.30;10.17;;;4.50;99.90;;;;;;5052171;28;20198;-57
2024/02/28 01:17:30;;;;;;;22.97;12.30;;;4.50;99.90;;;;;;5051992;28;20179;-56
2024/02/28 01:19:55;;;;;;;15.97;10.67;;;4.50;99.90;;;;;;5051921;28;20580;-54
2024/02/28 01:22:21;;;;;;;16.03;11.87;;;4.60;99.90;;;;;;5051391;28;20900;-59
2024/02/28 01:24:47;;;;;;;19.60;10.20;;;4.60;99.90;;;;;;5051884;28;20585;-59
2024/02/28 01:27:12;;;;;;;19.30;10.97;;;4.50;99.90;;;;;;5048016;28;20180;-58
2024/02/28 01:29:38;;;;;;;21.37;10.93;;;4.50;99.90;;;;;;5051926;28;20177;-53
2024/02/28 01:32:04;;;;;;;19.10;11.17;;;4.60;99.90;;;;;;5051349;28;20607;-56
2024/02/28 01:34:29;;;;;;;15.57;9.40;;;4.60;99.90;;;;;;5051484;28;20226;-57
2024/02/28 01:36:55;;;;;;;18.00;10.67;;;4.60;99.90;;;;;;5051417;28;20443;-61
2024/02/28 01:39:20;;;;;;;24.50;11.97;;;4.60;99.90;;;;;;5051796;28;20203;-53
2024/02/28 01:41:53;;;;;;;19.47;11.10;;;4.50;99.90;;;;;;5059777;28;20203;-54
2024/02/28 01:44:19;;;;;;;19.17;11.23;;;4.50;99.90;;;;;;5051782;28;20164;-54
2024/02/28 01:46:45;;;;;;;21.20;11.73;;;4.50;99.90;;;;;;5051910;28;20414;-55
2024/02/28 01:49:11;;;;;;;19.40;10.53;;;4.60;99.90;;;;;;5051571;28;20409;-57
2024/02/28 01:51:36;;;;;;;14.13;9.53;;;4.60;99.90;;;;;;5051275;28;20201;-57
2024/02/28 01:54:02;;;;;;;22.93;10.53;;;4.60;99.90;;;;;;5051514;28;20222;-56
2024/02/28 01:56:28;;;;;;;18.40;10.67;;;4.50;99.90;;;;;;5059448;28;20534;-55
2024/02/28 01:58:55;;;;;;;23.70;11.03;;;4.50;99.90;;;;;;5051638;28;20240;-59
2024/02/28 02:01:20;;;;;;;17.93;10.07;;;4.50;99.90;;;;;;5051109;28;20467;-56
2024/02/28 02:03:46;;;;;;;20.07;11.77;;;4.40;99.90;;;;;;5051219;28;20418;-58
2024/02/28 02:06:12;;;;;;;17.23;10.60;;;4.40;99.90;;;;;;5016858;28;20221;-59
2024/02/28 02:08:38;;;;;;;21.50;10.90;;;4.50;99.90;;;;;;5051452;28;20748;-58
2024/02/28 02:11:04;;;;;;;15.93;9.77;;;4.50;99.90;;;;;;5059744;28;20887;-55
2024/02/28 02:13:30;;;;;;;16.67;9.67;;;4.30;99.90;;;;;;5059422;28;20445;-56
2024/02/28 02:15:56;;;;;;;17.63;9.37;;;4.40;99.90;;;;;;5053351;28;20892;-59
2024/02/28 02:18:21;;;;;;;15.17;8.60;;;4.40;99.90;;;;;;5020255;28;20259;-55
2024/02/28 02:20:54;;;;;;;16.10;8.47;;;4.50;99.90;;;;;;5050961;28;20248;-57
2024/02/28 02:23:20;;;;;;;17.87;10.03;;;4.50;99.90;;;;;;5058729;28;20229;-56
2024/02/28 02:25:48;;;;;;;14.03;8.50;;;4.50;99.90;;;;;;5032747;28;20425;-59
2024/02/28 02:28:17;;;;;;;12.50;8.13;;;4.50;99.90;;;;;;5030578;28;20484;-57
2024/02/28 02:30:50;;;;;;;12.83;8.83;;;4.50;99.90;;;;;;5050579;28;20439;-58
2024/02/28 02:33:16;;;;;;;14.50;9.00;;;4.50;99.90;;;;;;5050537;28;20798;-55
2024/02/28 02:35:42;;;;;;;17.40;10.47;;;4.40;99.90;;;;;;5050917;28;20420;-55
2024/02/28 02:38:08;;;;;;;16.60;9.60;;;4.50;99.90;;;;;;5050463;28;20414;-54
2024/02/28 02:40:36;;;;;;;13.87;7.97;;;4.50;99.90;;;;;;5055215;28;20179;-57
2024/02/28 02:43:01;;;;;;;14.13;8.63;;;4.60;99.90;;;;;;5051487;28;20539;-57
2024/02/28 02:45:29;;;;;;;15.53;7.90;;;4.50;99.90;;;;;;5050549;28;20895;-59
2024/02/28 02:47:55;;;;;;;11.63;7.30;;;4.50;99.90;;;;;;5050501;28;20174;-58
2024/02/28 02:50:21;;;;;;;11.20;6.83;;;4.50;99.90;;;;;;5035312;28;20431;-58
2024/02/28 02:52:46;;;;;;;9.50;6.30;;;4.50;99.90;;;;;;5053909;28;20275;-54
2024/02/28 02:55:12;;;;;;;12.20;7.60;;;4.40;99.90;;;;;;5058518;28;20684;-58
2024/02/28 02:57:43;;;;;;;14.13;7.53;;;4.50;99.90;;;;;;5050168;28;20178;-56
2024/02/28 03:00:10;;;;;;;16.60;7.83;;;4.40;99.90;;;;;;5058471;28;20170;-59
2024/02/28 03:02:39;;;;;;;10.90;5.63;;;4.40;99.90;;;;;;5050040;28;20462;-56
2024/02/28 03:05:06;;;;;;;8.20;6.40;;;4.40;99.90;;;;;;5050021;28;20508;-58
2024/02/28 03:07:32;;;;;;;13.53;7.00;;;4.40;99.90;;;;;;5054022;28;20809;-57
2024/02/28 03:09:58;;;;;;;13.73;6.33;;;4.20;99.90;;;;;;5054458;28;20451;-58
2024/02/28 03:12:26;;;;;;;10.57;6.70;;;4.30;99.90;;;;;;5054253;28;20683;-57
2024/02/28 03:14:51;;;;;;;12.80;6.43;;;4.20;99.90;;;;;;5036308;28;20904;-57
2024/02/28 03:17:17;;;;;;;11.30;6.83;;;4.10;99.90;;;;;;5062469;28;20429;-60
2024/02/28 03:19:43;;;;;;;11.60;6.87;;;4.10;99.90;;;;;;5054174;28;20289;-56
2024/02/28 03:22:09;;;;;;;11.23;6.30;;;4.10;99.90;;;;;;5054033;28;20673;-57
2024/02/28 03:24:35;;;;;;;11.70;6.80;;;4.20;99.90;;;;;;5058659;28;20409;-57
2024/02/28 03:27:02;;;;;;;8.53;6.13;;;4.20;99.90;;;;;;5057091;28;20175;-56
2024/02/28 03:29:30;;;;;;;11.00;7.10;;;4.20;99.90;;;;;;5053987;28;20406;-58
2024/02/28 03:31:58;;;;;;;8.27;5.67;;;4.20;99.90;;;;;;5053952;28;20421;-55
2024/02/28 03:34:24;;;;;;;10.57;6.53;;;4.20;99.90;;;;;;5057259;28;20412;-56
2024/02/28 03:36:52;;;;;;;11.03;6.27;;;4.20;99.90;;;;;;5058907;28;20441;-56
2024/02/28 03:39:18;;;;;;;8.20;5.30;;;4.20;99.90;;;;;;5062056;28;20409;-56
2024/02/28 03:41:43;;;;;;;6.37;4.87;;;4.10;99.90;;;;;;5053583;28;20471;-58
2024/02/28 03:44:12;;;;;;;9.43;5.87;;;4.20;99.90;;;;;;5061845;28;20316;-58
2024/02/28 03:46:37;;;;;;;7.80;5.40;;;4.20;99.90;;;;;;5053759;28;20174;-57
2024/02/28 03:49:03;;;;;;;10.50;6.00;;;4.30;99.90;;;;;;5053416;28;20906;-58
2024/02/28 03:51:29;;;;;;;12.33;6.40;;;4.40;99.90;;;;;;5053755;28;20302;-56
2024/02/28 03:53:58;;;;;;;7.40;5.37;;;4.40;99.90;;;;;;5053572;28;20171;-58
2024/02/28 03:56:25;;;;;;;8.20;4.50;;;4.30;99.90;;;;;;5053614;28;20417;-59
2024/02/28 03:58:53;;;;;;;6.20;4.93;;;4.30;99.90;;;;;;5053449;28;20425;-57
2024/02/28 04:01:19;;;;;;;10.70;5.47;;;4.20;99.90;;;;;;5053385;28;20475;-55
2024/02/28 04:03:45;;;;;;;7.27;4.67;;;4.20;99.90;;;;;;5053442;28;20853;-59
2024/02/28 04:06:14;;;;;;;7.23;5.53;;;4.20;99.90;;;;;;5061481;28;20410;-57
2024/02/28 04:08:41;;;;;;;5.97;4.30;;;4.30;99.90;;;;;;5053222;28;20413;-56
2024/02/28 04:11:10;;;;;;;7.73;4.70;;;4.30;99.90;;;;;;5053077;28;20867;-59
2024/02/28 04:13:35;;;;;;;7.43;4.50;;;4.30;99.90;;;;;;5052898;28;20929;-57
2024/02/28 04:16:05;;;;;;;8.20;3.80;;;4.40;99.90;;;;;;5052975;28;20402;-58
2024/02/28 04:18:30;;;;;;;5.43;3.70;;;4.40;99.90;;;;;;5044506;28;20191;-58
2024/02/28 04:20:56;;;;;;;6.37;3.40;;;4.40;99.90;;;;;;5053051;28;20500;-58
2024/02/28 04:23:22;;;;;;;3.83;3.13;;;4.40;99.90;;;;;;5052747;28;21215;-53
2024/02/28 04:25:48;;;;;;;4.93;3.47;;;4.40;99.90;;;;;;5053326;28;20512;-56
2024/02/28 04:28:14;;;;;;;11.10;4.93;;;4.40;99.90;;;;;;5052373;28;20179;-57
2024/02/28 04:30:40;;;;;;;6.30;4.47;;;4.40;99.90;;;;;;5052705;28;20570;-56
2024/02/28 04:33:05;;;;;;;6.57;3.60;;;4.40;99.90;;;;;;5060742;28;20429;-57
2024/02/28 04:35:31;;;;;;;4.30;3.90;;;4.50;99.90;;;;;;5060652;28;20171;-57
2024/02/28 04:37:57;;;;;;;5.97;4.33;;;4.50;99.90;;;;;;5052581;28;20171;-56
2024/02/28 04:40:23;;;;;;;6.30;4.67;;;4.50;99.90;;;;;;5060720;28;20174;-58
2024/02/28 04:42:49;;;;;;;6.43;4.57;;;4.60;99.90;;;;;;5052518;28;20225;-57
2024/02/28 04:45:17;;;;;;;6.20;4.40;;;4.60;99.90;;;;;;5052412;28;20787;-56
2024/02/28 04:47:43;;;;;;;4.10;3.70;;;4.40;99.90;;;;;;5034541;28;20183;-56
2024/02/28 04:50:10;;;;;;;6.13;3.67;;;4.30;99.90;;;;;;5060704;28;20701;-56
2024/02/28 04:52:41;;;;;;;6.10;3.90;;;4.30;99.90;;;;;;5056705;28;20440;-55
2024/02/28 04:55:07;;;;;;;5.07;4.20;;;4.40;99.90;;;;;;5055890;28;20979;-56
2024/02/28 04:57:33;;;;;;;5.50;4.30;;;4.30;99.90;;;;;;5052490;28;20517;-56
2024/02/28 04:59:59;;;;;;;5.23;4.63;;;4.30;99.90;;;;;;5052653;28;20437;-56
2024/02/28 05:02:25;;;;;;;6.47;5.63;;;4.30;99.90;;;;;;5052080;28;20230;-58
2024/02/28 05:04:54;;;;;;;10.07;5.47;;;4.30;99.90;;;;;;5052293;28;20178;-57
2024/02/28 05:07:22;;;;;;;6.33;4.60;;;4.30;99.90;;;;;;5060413;28;20465;-58
2024/02/28 05:09:48;;;;;;;7.63;5.33;;;4.30;99.90;;;;;;5052099;28;20479;-59
2024/02/28 05:12:16;;;;;;;7.23;5.53;;;4.30;99.90;;;;;;5051695;28;20441;-56
2024/02/28 05:14:42;;;;;;;8.97;5.57;;;4.20;99.90;;;;;;5051895;28;20220;-56
2024/02/28 05:17:07;;;;;;;7.00;4.50;;;4.30;99.90;;;;;;5051799;28;20432;-58
2024/02/28 05:19:33;;;;;;;7.60;5.17;;;4.20;99.90;;;;;;5052319;28;20175;-53
2024/02/28 05:22:01;;;;;;;8.13;5.10;;;4.20;99.90;;;;;;5051867;28;20248;-58
2024/02/28 05:24:26;;;;;;;9.60;4.87;;;4.20;99.90;;;;;;5051912;28;20523;-59
2024/02/28 05:26:58;;;;;;;4.60;4.20;;;4.30;99.90;;;;;;5048559;28;20442;-59
2024/02/28 05:29:27;;;;;;;6.60;3.97;;;4.20;99.90;;;;;;5049527;28;20176;-58
2024/02/28 05:31:53;;;;;;;6.57;4.10;;;4.30;99.90;;;;;;5033820;28;20441;-58
2024/02/28 05:34:18;;;;;;;8.53;4.23;;;4.30;99.90;;;;;;5051456;28;20409;-57
2024/02/28 05:36:50;;;;;;;7.03;4.57;;;4.30;99.90;;;;;;5056780;28;20178;-59
2024/02/28 05:39:18;;;;;;;5.83;4.30;;;4.30;99.90;;;;;;5053930;28;20646;-58
2024/02/28 05:41:46;;;;;;;5.63;4.67;;;4.30;99.90;;;;;;5059609;28;20933;-59
2024/02/28 05:44:20;;;;;;;7.80;4.90;;;4.30;99.90;;;;;;5060241;28;20413;-56
2024/02/28 05:46:46;;;;;;;7.53;4.57;;;4.20;99.90;;;;;;5058166;28;20785;-56
2024/02/28 05:49:12;;;;;;;6.30;5.50;;;4.30;99.90;;;;;;5051521;28;20417;-56
2024/02/28 05:51:40;;;;;;;4.87;3.90;;;4.20;99.90;;;;;;5052046;28;20440;-56
2024/02/28 05:54:06;;;;;;;6.37;4.60;;;4.20;99.90;;;;;;5052358;28;20447;-58
2024/02/28 05:56:34;;;;;;;7.07;4.73;;;4.30;99.90;;;;;;5052487;28;20492;-57
2024/02/28 05:59:02;;;;;;;5.60;4.37;;;4.20;99.90;;;;;;5052754;28;20422;-58
2024/02/28 06:01:31;;;;;;;6.90;4.50;;;4.30;99.90;;;;;;5052433;28;20457;-58
2024/02/28 06:03:57;;;;;;;5.90;3.93;;;4.30;99.90;;;;;;5051471;28;20509;-58
2024/02/28 06:06:23;;;;;;;6.90;4.57;;;4.20;99.90;;;;;;5051061;28;20474;-58
2024/02/28 06:08:51;;;;;;;6.63;5.23;;;4.10;99.90;;;;;;5051450;28;20409;-58
2024/02/28 06:11:17;;;;;;;9.90;5.60;;;4.10;99.90;;;;;;5051085;28;20446;-57
2024/02/28 06:13:45;;;;;;;9.80;5.40;;;4.10;99.90;;;;;;5051339;28;20409;-58
2024/02/28 06:16:18;;;;;;;7.40;5.57;;;4.10;99.90;;;;;;5059173;28;20402;-56
2024/02/28 06:18:44;;;;;;;9.00;5.67;;;4.10;99.90;;;;;;5059031;28;20448;-56
2024/02/28 06:21:10;;;;;;;6.27;4.40;;;4.00;99.90;;;;;;5050495;28;20518;-58
2024/02/28 06:23:38;;;;;;;9.23;5.30;;;4.00;99.90;;;;;;5042011;28;20401;-56
2024/02/28 06:26:16;;;;;;;6.67;6.00;;;4.00;99.90;;;;;;5050935;28;20733;-55
2024/02/28 06:28:47;;;;;;;6.87;5.50;;;4.10;99.90;;;;;;5043253;28;20409;-57
2024/02/28 06:31:19;;;;;;;10.73;6.40;;;4.20;99.90;;;;;;5050577;28;20625;-57
2024/02/28 06:33:45;;;;;;;7.43;5.50;;;4.10;99.90;;;;;;5050767;28;20421;-57
2024/02/28 06:36:14;;;;;;;8.10;6.30;;;4.10;99.90;;;;;;5050525;28;20413;-59
2024/02/28 06:38:40;;;;;;;7.57;5.67;;;4.10;99.90;;;;;;5046550;28;20443;-56
2024/02/28 06:41:08;;;;;;;11.70;6.50;;;4.20;99.90;;;;;;5054500;28;20481;-57
2024/02/28 06:43:37;;;;;;;8.00;5.70;;;4.20;99.90;;;;;;5050070;28;20254;-57
2024/02/28 06:46:03;;;;;;;9.23;6.70;;;4.20;99.90;;;;;;5050201;28;20409;-54
2024/02/28 06:48:29;;;;;;;8.57;6.90;;;4.20;99.90;;;;;;5052920;28;20412;-59
2024/02/28 06:50:58;;;;;;;9.80;6.43;;;4.10;99.90;;;;;;5051555;28;20453;-57
2024/02/28 06:53:25;;;;;;;12.00;7.10;;;4.20;99.90;;;;;;5049764;28;20440;-58
2024/02/28 06:55:50;;;;;;;14.63;7.70;;;4.20;99.90;;;;;;5051638;28;20420;-58
2024/02/28 06:58:16;;;;;;;11.07;8.23;;;4.20;99.90;;;;;;5050753;28;20410;-57
2024/02/28 07:00:42;;;;;;;11.37;7.20;;;4.10;99.90;;;;;;5051119;28;20171;-57
2024/02/28 07:03:08;;;;;;;10.83;7.77;;;4.10;99.90;;;;;;5047327;28;20225;-57
2024/02/28 07:05:34;;;;;;;12.60;7.27;;;4.30;99.90;;;;;;5050365;28;20930;-59
2024/02/28 07:08:00;;;;;;;8.07;6.73;;;4.20;99.90;;;;;;5058771;28;20197;-62
2024/02/28 07:10:26;;;;;;;15.17;8.07;;;4.10;99.90;;;;;;5032166;28;20205;-61
2024/02/28 07:12:52;;;;;;;8.70;6.57;;;4.20;99.90;;;;;;5048289;28;20921;-62
2024/02/28 07:15:21;;;;;;;13.13;7.40;;;4.10;99.90;;;;;;5048518;28;20171;-61
2024/02/28 07:17:47;;;;;;;12.30;8.93;;;4.30;99.90;;;;;;5049649;28;20420;-56
2024/02/28 07:20:13;;;;;;;10.43;6.23;;;4.20;99.90;;;;;;5050197;28;20409;-58
2024/02/28 07:22:42;;;;;;;8.63;7.40;;;4.00;99.90;;;;;;5049835;28;20469;-58
2024/02/28 07:25:08;;;;;;;8.87;5.73;;;4.00;99.90;;;;;;5049945;28;20429;-58
2024/02/28 07:27:34;;;;;;;10.30;6.30;;;4.00;99.90;;;;;;5047845;28;20429;-57
2024/02/28 07:30:01;;;;;;;8.23;5.90;;;3.90;99.90;;;;;;5049358;28;20444;-55
2024/02/28 07:32:26;;;;;;;9.00;5.70;;;4.00;99.90;;;;;;5049607;28;20680;-58
2024/02/28 07:34:52;;;;;;;10.63;5.50;;;4.00;99.90;;;;;;5049849;28;20567;-57
2024/02/28 07:37:18;;;;;;;9.57;5.97;;;4.20;99.90;;;;;;5049674;28;20575;-57
2024/02/28 07:39:44;;;;;;;6.30;4.90;;;4.30;99.90;;;;;;5050381;28;20417;-58
2024/02/28 07:42:10;;;;;;;10.17;6.77;;;4.30;99.90;;;;;;5050074;28;20287;-59
2024/02/28 07:44:36;;;;;;;12.47;4.70;;;4.30;99.90;;;;;;5040079;28;20449;-58
2024/02/28 07:47:01;;;;;;;9.80;6.40;;;4.10;99.90;;;;;;5049486;28;20275;-56
2024/02/28 07:49:27;;;;;;;7.20;5.10;;;4.00;99.90;;;;;;5057906;28;20500;-57
2024/02/28 07:51:56;;;;;;;10.27;6.17;;;4.10;99.90;;;;;;5047307;28;20202;-54
2024/02/28 07:54:22;;;;;;;9.17;6.40;;;4.20;99.90;;;;;;5052998;28;20409;-59
2024/02/28 07:56:48;;;;;;;8.60;5.93;;;4.10;99.90;;;;;;5049174;28;20512;-59
2024/02/28 07:59:14;;;;;;;12.43;6.50;;;4.20;99.90;;;;;;5051941;28;20645;-61
2024/02/28 08:01:40;;;;;;;6.70;5.10;;;4.30;99.90;;;;;;5053076;28;20457;-60
2024/02/28 08:04:05;;;;;;;11.90;7.03;;;4.20;99.90;;;;;;5053210;28;20608;-60
2024/02/28 08:06:33;;;;;;;10.23;6.00;;;4.20;99.90;;;;;;5053134;28;20170;-60
2024/02/28 08:08:58;;;;;;;7.40;5.60;;;4.30;99.90;;;;;;5052748;28;20252;-61
2024/02/28 08:11:25;;;;;;;7.50;5.20;;;4.10;99.90;;;;;;5052823;28;20414;-61
2024/02/28 08:13:51;;;;;;;8.60;5.60;;;4.10;99.90;;;;;;5052866;28;20195;-61
2024/02/28 08:16:16;;;;;;;8.00;5.90;;;4.10;99.90;;;;;;5052727;28;20410;-61
2024/02/28 08:18:42;;;;;;;13.63;5.57;;;3.90;99.90;;;;;;5052598;28;20742;-60
2024/02/28 08:21:08;;;;;;;8.37;6.60;;;3.80;99.90;;;;;;5052938;28;20190;-61
2024/02/28 08:23:34;;;;;;;7.67;5.50;;;3.80;99.90;;;;;;5052248;28;20668;-59
2024/02/28 08:26:00;;;;;;;8.37;5.43;;;4.00;99.90;;;;;;5052888;28;20496;-59
2024/02/28 08:28:25;;;;;;;9.07;5.53;;;3.90;99.90;;;;;;5048449;28;20179;-58
2024/02/28 08:30:51;;;;;;;6.83;4.97;;;3.70;99.90;;;;;;5052687;28;20648;-60
2024/02/28 08:33:17;;;;;;;8.80;5.60;;;3.80;99.90;;;;;;5052879;28;20195;-59
2024/02/28 08:35:43;;;;;;;7.80;4.90;;;3.90;99.90;;;;;;5051868;28;20240;-60
2024/02/28 08:38:08;;;;;;;6.47;4.70;;;4.00;99.90;;;;;;5052874;28;20174;-59
2024/02/28 08:40:34;;;;;;;5.70;3.73;;;4.00;99.90;;;;;;5052522;28;20422;-59
2024/02/28 08:42:59;;;;;;;6.97;4.50;;;3.90;99.90;;;;;;5052404;28;20229;-59
2024/02/28 08:45:25;;;;;;;7.40;6.27;;;3.80;99.90;;;;;;5052667;28;20220;-60
2024/02/28 08:47:51;;;;;;;10.90;4.67;;;3.80;99.90;;;;;;5052182;28;20167;-60
2024/02/28 08:50:18;;;;;;;8.80;6.43;;;3.70;99.90;;;;;;5052397;28;20420;-59
2024/02/28 08:52:43;;;;;;;9.40;6.53;;;3.90;99.90;;;;;;5052585;28;20787;-56
2024/02/28 08:55:09;;;;;;;9.10;5.80;;;3.90;99.90;;;;;;5052601;28;20414;-60
2024/02/28 08:57:35;;;;;;;11.70;6.70;;;3.90;99.90;;;;;;5051914;28;20183;-59
2024/02/28 09:00:01;;;;;;;13.37;7.63;;;3.70;99.90;;;;;;5052196;28;20202;-60
2024/02/28 09:02:26;;;;;;;9.80;7.33;;;3.60;99.90;;;;;;5052090;28;20225;-60
2024/02/28 09:04:56;;;;;;;10.00;6.97;;;3.60;99.90;;;;;;5051965;28;20166;-59
2024/02/28 09:07:22;;;;;;;11.50;6.53;;;3.60;99.90;;;;;;5052138;28;20662;-61
2024/02/28 09:09:47;;;;;;;12.93;8.17;;;3.60;99.90;;;;;;5052280;28;20439;-60
2024/02/28 09:12:13;;;;;;;15.00;9.30;;;3.80;99.90;;;;;;5051846;28;20203;-60
2024/02/28 09:14:39;;;;;;;18.40;9.07;;;3.90;99.90;;;;;;5051500;28;20301;-60
2024/02/28 09:17:04;;;;;;;12.60;7.67;;;3.90;99.90;;;;;;5052172;28;20209;-60
2024/02/28 09:19:31;;;;;;;11.80;8.03;;;3.90;99.90;;;;;;5051774;28;20638;-60
2024/02/28 09:21:57;;;;;;;18.37;9.93;;;3.80;99.90;;;;;;5052223;28;20267;-60
2024/02/28 09:24:24;;;;;;;15.17;9.03;;;3.90;99.90;;;;;;5051247;28;20896;-59
2024/02/28 09:26:49;;;;;;;11.30;7.60;;;3.90;99.90;;;;;;5051725;28;20822;-59
2024/02/28 09:29:15;;;;;;;11.10;7.80;;;3.80;99.90;;;;;;5051824;28;20432;-59
2024/02/28 09:31:40;;;;;;;17.27;8.97;;;3.90;99.90;;;;;;5051605;28;20202;-60
2024/02/28 09:34:09;;;;;;;15.30;8.30;;;3.90;99.90;;;;;;5051335;28;20668;-61
2024/02/28 09:36:45;;;;;;;13.60;7.63;;;3.70;99.90;;;;;;5051476;28;20663;-61
2024/02/28 09:39:17;;;;;;;11.27;8.70;;;4.00;99.90;;;;;;5051857;28;20425;-62
2024/02/28 09:41:43;;;;;;;12.03;8.30;;;3.80;99.90;;;;;;5051102;28;21025;-62
2024/02/28 09:44:09;;;;;;;17.63;9.60;;;3.80;99.90;;;;;;5051234;28;20485;-61
2024/02/28 09:46:35;;;;;;;15.93;10.27;;;3.90;99.90;;;;;;5051315;28;20189;-63
2024/02/28 09:49:07;;;;;;;16.20;9.57;;;3.90;99.90;;;;;;5051363;28;20492;-65
2024/02/28 09:51:37;;;;;;;14.60;9.27;;;3.90;99.90;;;;;;5051457;28;20217;-60
2024/02/28 09:54:04;;;;;;;16.40;9.30;;;4.10;99.90;;;;;;5050681;28;20418;-60
2024/02/28 09:56:34;;;;;;;15.20;10.80;;;4.00;99.90;;;;;;5050801;28;20413;-60
2024/02/28 09:59:02;;;;;;;15.97;8.80;;;4.10;99.90;;;;;;5051213;28;20414;-61
2024/02/28 10:01:29;;;;;;;14.83;8.43;;;4.10;99.90;;;;;;5051445;28;20922;-60
2024/02/28 10:03:56;;;;;;;11.70;8.77;;;4.10;99.90;;;;;;5051292;28;20820;-60
2024/02/28 10:06:22;;;;;;;11.33;8.43;;;4.10;99.90;;;;;;5050955;28;20437;-60
2024/02/28 10:08:48;;;;;;;12.27;9.10;;;4.20;99.90;;;;;;5051383;28;20425;-62
2024/02/28 10:11:23;;;;;;;13.60;8.67;;;4.00;99.90;;;;;;5051853;28;20413;-59
2024/02/28 10:13:49;;;;;;;16.47;8.73;;;4.00;99.90;;;;;;5042763;28;20182;-61
2024/02/28 10:16:15;;;;;;;13.63;8.70;;;4.10;99.90;;;;;;5050685;28;20425;-61
2024/02/28 10:18:43;;;;;;;15.63;8.63;;;4.10;99.90;;;;;;5051210;28;20421;-61
2024/02/28 10:21:09;;;;;;;18.53;9.30;;;4.00;99.90;;;;;;5050671;28;20286;-61
2024/02/28 10:23:36;;;;;;;17.70;10.53;;;4.00;99.90;;;;;;5050806;28;20432;-61
2024/02/28 10:26:03;;;;;;;14.20;8.90;;;3.90;99.90;;;;;;5059505;28;20171;-59
2024/02/28 10:28:29;;;;;;;14.67;9.73;;;3.90;99.90;;;;;;5050741;28;20414;-59
2024/02/28 10:30:55;;;;;;;20.27;11.20;;;3.80;99.90;;;;;;5050140;28;20512;-59
2024/02/28 10:33:20;;;;;;;14.63;8.60;;;3.80;99.90;;;;;;5050601;28;20199;-59
2024/02/28 10:35:51;;;;;;;15.50;8.50;;;3.70;99.90;;;;;;5053390;28;20439;-60
2024/02/28 10:38:17;;;;;;;15.73;10.37;;;3.80;99.90;;;;;;5055387;28;20203;-59
2024/02/28 10:40:43;;;;;;;15.10;10.40;;;3.90;99.90;;;;;;5050397;28;21176;-60
2024/02/28 10:43:10;;;;;;;18.37;10.37;;;4.00;99.90;;;;;;5050447;28;20801;-60
2024/02/28 10:45:39;;;;;;;21.07;11.10;;;4.10;99.90;;;;;;5050496;28;20208;-60
2024/02/28 10:48:06;;;;;;;14.23;9.80;;;4.30;99.90;;;;;;5050647;28;20497;-61
2024/02/28 10:50:32;;;;;;;18.17;10.70;;;4.40;99.90;;;;;;5050599;28;20444;-61
2024/02/28 10:53:03;;;;;;;20.17;10.40;;;4.40;99.90;;;;;;5054678;28;20471;-61
2024/02/28 10:55:41;;;;;;;15.30;10.00;;;4.40;99.90;;;;;;5061201;28;20421;-61
2024/02/28 10:58:09;;;;;;;15.60;9.33;;;4.50;99.90;;;;;;5050201;28;20428;-59
2024/02/28 11:00:41;;;;;;;15.80;10.53;;;4.70;99.90;;;;;;5050292;28;20479;-59
2024/02/28 11:03:08;;;;;;;17.70;11.50;;;4.70;99.90;;;;;;5050054;28;20421;-60
2024/02/28 11:05:39;;;;;;;13.30;9.80;;;4.30;99.90;;;;;;5049856;28;20413;-59
2024/02/28 11:08:26;;;;;;;15.53;10.37;;;4.40;99.90;;;;;;5050096;28;20934;-59
2024/02/28 11:10:56;;;;;;;15.00;9.20;;;4.60;99.90;;;;;;5050295;28;20400;-61
2024/02/28 11:13:22;;;;;;;17.27;11.07;;;4.40;99.90;;;;;;5049799;28;20521;-61
2024/02/28 11:15:48;;;;;;;19.07;11.63;;;4.50;99.90;;;;;;5049942;28;20409;-60
2024/02/28 11:18:14;;;;;;;17.63;9.57;;;4.70;99.90;;;;;;5050119;28;20406;-61
2024/02/28 11:20:39;;;;;;;16.73;10.60;;;4.40;99.90;;;;;;5050118;28;20242;-60
2024/02/28 11:23:09;;;;;;;15.13;9.00;;;4.60;99.90;;;;;;5049398;28;20604;-59
2024/02/28 11:25:35;;;;;;;16.83;10.20;;;4.80;99.90;;;;;;5049993;28;20761;-59
2024/02/28 11:28:01;;;;;;;14.97;10.40;;;4.80;99.90;;;;;;5051697;28;20725;-59
2024/02/28 11:30:26;;;;;;;17.50;10.33;;;4.80;99.90;;;;;;5062259;28;20416;-60
2024/02/28 11:32:55;;;;;;;18.47;10.43;;;4.40;99.90;;;;;;5054320;28;20298;-59
2024/02/28 11:35:21;;;;;;;16.47;9.47;;;4.20;99.90;;;;;;5053861;28;20178;-60
2024/02/28 11:37:51;;;;;;;14.10;9.50;;;4.20;99.90;;;;;;5062133;28;20423;-62
2024/02/28 11:40:16;;;;;;;15.03;9.90;;;4.30;99.90;;;;;;5053090;28;20895;-60
2024/02/28 11:42:42;;;;;;;13.20;9.07;;;4.50;99.90;;;;;;5053530;28;20463;-60
2024/02/28 11:45:11;;;;;;;18.30;11.53;;;4.40;99.90;;;;;;5054056;28;20178;-59
2024/02/28 11:47:36;;;;;;;14.17;9.87;;;4.20;99.90;;;;;;5054208;28;20183;-59
2024/02/28 11:50:03;;;;;;;14.80;7.67;;;4.40;99.90;;;;;;5054196;28;20410;-61
2024/02/28 11:52:32;;;;;;;15.73;8.73;;;4.50;99.90;;;;;;5053623;28;20190;-59
2024/02/28 11:54:58;;;;;;;13.13;8.37;;;4.40;99.90;;;;;;5053837;28;20775;-61
2024/02/28 11:57:23;;;;;;;12.90;8.87;;;4.30;99.90;;;;;;5053895;28;20614;-58
2024/02/28 11:59:49;;;;;;;13.07;8.40;;;4.50;99.90;;;;;;5053693;28;20645;-62
2024/02/28 12:02:15;;;;;;;12.77;8.63;;;4.50;99.90;;;;;;5053397;28;20222;-60
2024/02/28 12:04:45;;;;;;;10.20;7.40;;;4.80;99.90;;;;;;5053320;28;20256;-60
2024/02/28 12:07:11;;;;;;;11.57;7.57;;;4.80;99.90;;;;;;5053634;28;20409;-63
2024/02/28 12:09:38;;;;;;;12.03;7.53;;;5.00;99.90;;;;;;5102216;22;20523;-63
2024/02/28 12:12:06;;;;;;;8.57;6.83;;;5.00;99.90;;;;;;5073605;28;20417;-66
2024/02/28 12:14:35;;;;;;;12.10;6.80;;;5.20;99.90;;;;;;5069949;28;20840;-63
2024/02/28 12:17:01;;;;;;;11.03;7.83;;;5.30;99.90;;;;;;5063407;28;20447;-66
2024/02/28 12:19:28;;;;;;;10.20;6.43;;;5.20;99.90;;;;;;5065918;28;20834;-63
2024/02/28 12:21:54;;;;;;;11.57;7.00;;;5.00;99.90;;;;;;5051835;28;20202;-62
2024/02/28 12:24:20;;;;;;;10.03;7.10;;;5.00;99.90;;;;;;5055376;28;20440;-62
2024/02/28 12:26:46;;;;;;;10.37;7.10;;;4.60;99.90;;;;;;5058656;28;20504;-64
2024/02/28 12:29:12;;;;;;;10.80;8.17;;;5.00;99.90;;;;;;5056923;28;20627;-64
2024/02/28 12:31:37;;;;;;;11.43;7.27;;;4.70;99.90;;;;;;5066496;28;20288;-64
2024/02/28 12:34:06;;;;;;;11.60;7.20;;;5.00;99.90;;;;;;5052641;28;20257;-64
2024/02/28 12:36:32;;;;;;;8.80;6.70;;;5.00;99.90;;;;;;5052623;28;20183;-64
2024/02/28 12:38:59;;;;;;;10.77;6.73;;;5.10;99.90;;;;;;5055457;28;20443;-64
2024/02/28 12:41:25;;;;;;;11.60;6.73;;;5.30;99.90;;;;;;5057442;28;20949;-65
2024/02/28 12:43:51;;;;;;;11.67;8.10;;;5.30;99.90;;;;;;5063711;28;20433;-63
2024/02/28 12:46:17;;;;;;;10.33;6.63;;;5.30;99.90;;;;;;5061292;28;20789;-64